sensor_id;sensor_type;location;lat;lon;timestamp;pressure;altitude;pressure_sealevel;temperature;humidity
13050;BME280;6591;51.446;5.404;2023-02-22T00:01:54;101238.63;;;13.73;52.43
13050;BME280;6591;51.446;5.404;2023-02-22T00:04:38;101241.38;;;13.71;52.22
13050;BME280;6591;51.446;5.404;2023-02-22T00:07:06;101230.81;;;13.70;52.32
13050;BME280;6591;51.446;5.404;2023-02-22T00:09:33;101231.75;;;13.69;52.47
13050;BME280;6591;51.446;5.404;2023-02-22T00:12:01;101231.75;;;13.69;52.35
13050;BME280;6591;51.446;5.404;2023-02-22T00:14:28;101227.34;;;13.68;52.55
13050;BME280;6591;51.446;5.404;2023-02-22T00:16:55;101218.47;;;13.67;52.33
13050;BME280;6591;51.446;5.404;2023-02-22T00:19:25;101220.19;;;13.68;52.36
13050;BME280;6591;51.446;5.404;2023-02-22T00:21:53;101221.06;;;13.69;52.26
13050;BME280;6591;51.446;5.404;2023-02-22T00:24:22;101219.25;;;13.69;52.35
13050;BME280;6591;51.446;5.404;2023-02-22T00:26:54;101224.66;;;13.68;52.36
13050;BME280;6591;51.446;5.404;2023-02-22T00:29:25;101218.47;;;13.67;52.55
13050;BME280;6591;51.446;5.404;2023-02-22T00:31:52;101222.94;;;13.67;52.37
13050;BME280;6591;51.446;5.404;2023-02-22T00:34:21;101213.38;;;13.63;52.55
13050;BME280;6591;51.446;5.404;2023-02-22T00:45:51;101222.66;;;13.38;53.15
13050;BME280;6591;51.446;5.404;2023-02-22T00:48:19;101216.28;;;13.41;52.57
13050;BME280;6591;51.446;5.404;2023-02-22T00:50:47;101213.53;;;13.42;52.67
13050;BME280;6591;51.446;5.404;2023-02-22T00:53:15;101206.34;;;13.44;52.88
13050;BME280;6591;51.446;5.404;2023-02-22T00:55:42;101219.50;;;13.47;52.74
13050;BME280;6591;51.446;5.404;2023-02-22T00:58:09;101209.69;;;13.48;52.49
13050;BME280;6591;51.446;5.404;2023-02-22T01:00:40;101206.09;;;13.49;52.75
13050;BME280;6591;51.446;5.404;2023-02-22T01:03:11;101200.66;;;13.50;52.45
13050;BME280;6591;51.446;5.404;2023-02-22T01:05:39;101196.19;;;13.51;52.57
13050;BME280;6591;51.446;5.404;2023-02-22T01:08:09;101199.72;;;13.51;52.44
13050;BME280;6591;51.446;5.404;2023-02-22T01:10:38;101196.19;;;13.51;52.68
13050;BME280;6591;51.446;5.404;2023-02-22T01:13:07;101186.38;;;13.51;52.69
13050;BME280;6591;51.446;5.404;2023-02-22T01:15:38;101188.28;;;13.49;52.48
13050;BME280;6591;51.446;5.404;2023-02-22T01:18:07;101185.50;;;13.51;52.84
13050;BME280;6591;51.446;5.404;2023-02-22T01:20:36;101178.38;;;13.51;52.91
13050;BME280;6591;51.446;5.404;2023-02-22T01:23:05;101181.91;;;13.52;52.42
13050;BME280;6591;51.446;5.404;2023-02-22T01:25:34;101183.66;;;13.53;52.95
13050;BME280;6591;51.446;5.404;2023-02-22T01:28:04;101180.09;;;13.52;52.88
13050;BME280;6591;51.446;5.404;2023-02-22T01:30:34;101173.03;;;13.51;52.91
13050;BME280;6591;51.446;5.404;2023-02-22T01:33:07;101176.56;;;13.52;52.32
13050;BME280;6591;51.446;5.404;2023-02-22T01:44:37;101164.34;;;13.31;53.18
13050;BME280;6591;51.446;5.404;2023-02-22T01:47:07;101165.06;;;13.34;52.86
13050;BME280;6591;51.446;5.404;2023-02-22T01:49:46;101152.69;;;13.33;53.24
13050;BME280;6591;51.446;5.404;2023-02-22T01:52:19;101159.75;;;13.34;52.70
13050;BME280;6591;51.446;5.404;2023-02-22T01:54:55;101157.91;;;13.35;52.74
13050;BME280;6591;51.446;5.404;2023-02-22T01:57:29;101157.06;;;13.34;52.97
13050;BME280;6591;51.446;5.404;2023-02-22T02:00:07;101153.44;;;13.35;52.90
13050;BME280;6591;51.446;5.404;2023-02-22T02:03:11;101144.81;;;13.30;53.05
13050;BME280;6591;51.446;5.404;2023-02-22T02:05:42;101139.34;;;13.33;52.86
13050;BME280;6591;51.446;5.404;2023-02-22T02:08:34;101142.06;;;13.32;52.88
13050;BME280;6591;51.446;5.404;2023-02-22T02:11:06;101141.91;;;13.35;53.04
13050;BME280;6591;51.446;5.404;2023-02-22T02:13:36;101131.16;;;13.36;52.82
13050;BME280;6591;51.446;5.404;2023-02-22T02:16:03;101133.84;;;13.36;52.84
13050;BME280;6591;51.446;5.404;2023-02-22T02:18:30;101130.16;;;13.39;53.21
13050;BME280;6591;51.446;5.404;2023-02-22T02:21:29;101124.91;;;13.37;53.29
13050;BME280;6591;51.446;5.404;2023-02-22T02:37:10;101124.44;;;13.29;53.20
13050;BME280;6591;51.446;5.404;2023-02-22T02:39:34;101128.81;;;13.30;53.20
13050;BME280;6591;51.446;5.404;2023-02-22T02:42:09;101121.78;;;13.29;53.18
13050;BME280;6591;51.446;5.404;2023-02-22T02:45:00;101122.63;;;13.30;53.16
13050;BME280;6591;51.446;5.404;2023-02-22T02:47:39;101123.59;;;13.29;53.06
13050;BME280;6591;51.446;5.404;2023-02-22T02:50:56;101123.47;;;13.30;53.13
13050;BME280;6591;51.446;5.404;2023-02-22T02:53:21;101119.94;;;13.30;52.94
13050;BME280;6591;51.446;5.404;2023-02-22T02:55:51;101127.00;;;13.31;52.90
13050;BME280;6591;51.446;5.404;2023-02-22T02:58:22;101117.53;;;13.25;53.11
13050;BME280;6591;51.446;5.404;2023-02-22T03:00:54;101113.00;;;13.27;52.90
13050;BME280;6591;51.446;5.404;2023-02-22T03:04:00;101113.31;;;13.21;53.09
13050;BME280;6591;51.446;5.404;2023-02-22T03:16:19;101098.75;;;13.09;53.33
13050;BME280;6591;51.446;5.404;2023-02-22T03:21:46;101091.69;;;13.08;53.37
13050;BME280;6591;51.446;5.404;2023-02-22T03:24:38;101082.06;;;13.06;53.49
13050;BME280;6591;51.446;5.404;2023-02-22T03:27:17;101081.91;;;13.09;53.30
13050;BME280;6591;51.446;5.404;2023-02-22T03:29:56;101073.91;;;13.09;53.27
13050;BME280;6591;51.446;5.404;2023-02-22T03:32:35;101066.88;;;13.08;53.52
13050;BME280;6591;51.446;5.404;2023-02-22T03:35:18;101065.16;;;13.07;53.63
13050;BME280;6591;51.446;5.404;2023-02-22T03:37:54;101058.00;;;13.07;53.60
13050;BME280;6591;51.446;5.404;2023-02-22T03:40:30;101052.56;;;13.09;53.19
13050;BME280;6591;51.446;5.404;2023-02-22T03:43:13;101056.09;;;13.09;53.55
13050;BME280;6591;51.446;5.404;2023-02-22T03:45:47;101048.03;;;13.11;53.30
13050;BME280;6591;51.446;5.404;2023-02-22T03:48:19;101055.91;;;13.14;53.21
13050;BME280;6591;51.446;5.404;2023-02-22T03:50:49;101049.81;;;13.12;53.38
13050;BME280;6591;51.446;5.404;2023-02-22T03:53:19;101039.19;;;13.10;53.42
13050;BME280;6591;51.446;5.404;2023-02-22T03:55:52;101032.97;;;13.10;53.05
13050;BME280;6591;51.446;5.404;2023-02-22T03:58:23;101031.19;;;13.10;53.32
13050;BME280;6591;51.446;5.404;2023-02-22T04:00:52;101030.28;;;13.11;53.31
13050;BME280;6591;51.446;5.404;2023-02-22T04:03:21;101024.13;;;13.09;53.20
13050;BME280;6591;51.446;5.404;2023-02-22T04:05:49;101017.91;;;13.09;53.20
13050;BME280;6591;51.446;5.404;2023-02-22T04:08:18;101019.66;;;13.10;53.58
13050;BME280;6591;51.446;5.404;2023-02-22T04:10:46;101016.03;;;13.11;53.20
13050;BME280;6591;51.446;5.404;2023-02-22T04:13:15;101018.69;;;13.12;53.24
13050;BME280;6591;51.446;5.404;2023-02-22T04:15:45;101015.16;;;13.12;53.55
13050;BME280;6591;51.446;5.404;2023-02-22T04:18:12;101012.47;;;13.12;53.53
13050;BME280;6591;51.446;5.404;2023-02-22T04:20:40;101010.72;;;13.11;53.50
13050;BME280;6591;51.446;5.404;2023-02-22T04:23:11;101010.72;;;13.11;53.58
13050;BME280;6591;51.446;5.404;2023-02-22T04:25:40;101005.38;;;13.11;53.54
13050;BME280;6591;51.446;5.404;2023-02-22T04:28:10;101007.19;;;13.10;53.74
13050;BME280;6591;51.446;5.404;2023-02-22T04:30:57;101012.59;;;13.09;53.81
13050;BME280;6591;51.446;5.404;2023-02-22T04:33:25;101017.06;;;13.08;53.37
13050;BME280;6591;51.446;5.404;2023-02-22T04:35:53;101016.22;;;13.08;53.27
13050;BME280;6591;51.446;5.404;2023-02-22T04:38:20;101014.50;;;13.07;53.46
13050;BME280;6591;51.446;5.404;2023-02-22T04:40:47;101013.69;;;13.05;53.74
13050;BME280;6591;51.446;5.404;2023-02-22T04:43:14;101011.91;;;13.05;53.60
13050;BME280;6591;51.446;5.404;2023-02-22T04:45:41;101020.94;;;13.03;53.70
13050;BME280;6591;51.446;5.404;2023-02-22T04:48:09;101019.97;;;13.04;53.40
13050;BME280;6591;51.446;5.404;2023-02-22T04:50:36;101009.47;;;13.01;53.79
13050;BME280;6591;51.446;5.404;2023-02-22T04:53:03;101000.56;;;13.02;53.24
13050;BME280;6591;51.446;5.404;2023-02-22T04:55:30;101003.09;;;13.03;53.59
13050;BME280;6591;51.446;5.404;2023-02-22T04:57:58;101004.94;;;13.03;53.52
13050;BME280;6591;51.446;5.404;2023-02-22T05:00:25;100994.28;;;13.03;53.30
13050;BME280;6591;51.446;5.404;2023-02-22T05:02:58;100996.09;;;13.02;53.44
13050;BME280;6591;51.446;5.404;2023-02-22T05:05:26;100986.28;;;13.03;53.59
13050;BME280;6591;51.446;5.404;2023-02-22T05:07:53;100988.09;;;13.02;53.38
13050;BME280;6591;51.446;5.404;2023-02-22T05:10:20;100983.63;;;13.03;54.03
13050;BME280;6591;51.446;5.404;2023-02-22T05:12:47;100979.22;;;13.02;53.10
13050;BME280;6591;51.446;5.404;2023-02-22T05:15:18;100970.44;;;13.00;53.55
13050;BME280;6591;51.446;5.404;2023-02-22T05:17:46;100977.66;;;12.98;53.65
13050;BME280;6591;51.446;5.404;2023-02-22T05:20:29;100970.75;;;12.94;53.78
13050;BME280;6591;51.446;5.404;2023-02-22T05:22:59;100966.28;;;12.94;53.74
13050;BME280;6591;51.446;5.404;2023-02-22T05:25:27;100961.81;;;12.95;53.82
13050;BME280;6591;51.446;5.404;2023-02-22T05:27:59;100961.81;;;12.95;53.74
13050;BME280;6591;51.446;5.404;2023-02-22T05:30:31;100957.44;;;12.94;53.65
13050;BME280;6591;51.446;5.404;2023-02-22T05:32:59;100956.50;;;12.95;53.69
13050;BME280;6591;51.446;5.404;2023-02-22T05:35:27;100949.38;;;12.95;53.50
13050;BME280;6591;51.446;5.404;2023-02-22T05:37:55;100951.03;;;12.98;53.88
13050;BME280;6591;51.446;5.404;2023-02-22T05:40:25;100943.97;;;12.97;53.44
13050;BME280;6591;51.446;5.404;2023-02-22T05:42:53;100943.84;;;12.98;53.77
13050;BME280;6591;51.446;5.404;2023-02-22T05:45:24;100932.25;;;12.99;53.91
13050;BME280;6591;51.446;5.404;2023-02-22T05:47:52;100937.50;;;13.01;53.57
13050;BME280;6591;51.446;5.404;2023-02-22T05:50:20;100941.97;;;13.00;53.85
13050;BME280;6591;51.446;5.404;2023-02-22T05:52:48;100937.50;;;13.01;53.80
13050;BME280;6591;51.446;5.404;2023-02-22T05:55:19;100932.09;;;13.02;53.53
13050;BME280;6591;51.446;5.404;2023-02-22T05:57:46;100928.47;;;13.03;54.05
13050;BME280;6591;51.446;5.404;2023-02-22T06:00:21;100927.66;;;13.03;53.50
13050;BME280;6591;51.446;5.404;2023-02-22T06:03:15;100912.66;;;13.00;53.80
13050;BME280;6591;51.446;5.404;2023-02-22T06:05:42;100908.81;;;13.06;53.85
13050;BME280;6591;51.446;5.404;2023-02-22T06:08:10;100908.81;;;13.06;53.58
13050;BME280;6591;51.446;5.404;2023-02-22T06:10:37;100900.81;;;13.06;53.47
13050;BME280;6591;51.446;5.404;2023-02-22T06:13:05;100896.41;;;13.05;53.41
13050;BME280;6591;51.446;5.404;2023-02-22T06:15:33;100895.56;;;13.04;53.56
13050;BME280;6591;51.446;5.404;2023-02-22T06:18:01;100899.25;;;13.02;53.82
13050;BME280;6591;51.446;5.404;2023-02-22T06:20:29;100894.88;;;13.01;54.00
13050;BME280;6591;51.446;5.404;2023-02-22T06:22:57;100893.00;;;13.03;53.83
13050;BME280;6591;51.446;5.404;2023-02-22T06:25:28;100887.72;;;13.01;53.65
13050;BME280;6591;51.446;5.404;2023-02-22T06:28:00;100885.16;;;13.00;53.82
13050;BME280;6591;51.446;5.404;2023-02-22T06:30:28;100887.06;;;12.98;53.64
13050;BME280;6591;51.446;5.404;2023-02-22T06:32:55;100883.41;;;12.99;53.31
13050;BME280;6591;51.446;5.404;2023-02-22T06:35:22;100884.38;;;12.98;53.60
13050;BME280;6591;51.446;5.404;2023-02-22T06:37:50;100881.78;;;12.96;53.36
13050;BME280;6591;51.446;5.404;2023-02-22T06:40:17;100886.34;;;12.94;53.36
13050;BME280;6591;51.446;5.404;2023-02-22T06:42:47;100882.13;;;12.90;53.61
13050;BME280;6591;51.446;5.404;2023-02-22T06:45:16;100889.25;;;12.90;53.67
13050;BME280;6591;51.446;5.404;2023-02-22T06:47:44;100883.13;;;12.88;53.94
13050;BME280;6591;51.446;5.404;2023-02-22T06:50:28;100888.72;;;12.83;53.55
13050;BME280;6591;51.446;5.404;2023-02-22T06:52:57;100893.97;;;12.85;53.87
13050;BME280;6591;51.446;5.404;2023-02-22T06:55:30;100894.06;;;12.83;53.93
13050;BME280;6591;51.446;5.404;2023-02-22T06:57:58;100888.72;;;12.83;53.71
13050;BME280;6591;51.446;5.404;2023-02-22T07:00:28;100895.84;;;12.83;53.59
13050;BME280;6591;51.446;5.404;2023-02-22T07:02:57;100897.75;;;12.81;53.68
13050;BME280;6591;51.446;5.404;2023-02-22T07:05:25;100892.44;;;12.81;54.21
13050;BME280;6591;51.446;5.404;2023-02-22T07:08:05;100893.44;;;12.78;53.62
13050;BME280;6591;51.446;5.404;2023-02-22T07:10:35;100891.50;;;12.82;54.06
13050;BME280;6591;51.446;5.404;2023-02-22T07:13:04;100903.84;;;12.83;53.69
13050;BME280;6591;51.446;5.404;2023-02-22T07:15:33;100889.69;;;12.82;54.07
13050;BME280;6591;51.446;5.404;2023-02-22T07:18:01;100893.03;;;12.86;54.09
13050;BME280;6591;51.446;5.404;2023-02-22T07:20:30;100894.75;;;12.87;53.74
13050;BME280;6591;51.446;5.404;2023-02-22T07:22:58;100903.53;;;12.89;53.98
13050;BME280;6591;51.446;5.404;2023-02-22T07:25:26;100898.28;;;12.87;53.53
13050;BME280;6591;51.446;5.404;2023-02-22T07:27:53;100903.63;;;12.87;53.55
13050;BME280;6591;51.446;5.404;2023-02-22T07:30:31;100912.63;;;12.85;53.94
13050;BME280;6591;51.446;5.404;2023-02-22T07:33:04;100916.16;;;12.85;53.77
13050;BME280;6591;51.446;5.404;2023-02-22T07:35:35;100918.81;;;12.85;54.27
13050;BME280;6591;51.446;5.404;2023-02-22T07:38:05;100909.03;;;12.86;54.14
13050;BME280;6591;51.446;5.404;2023-02-22T07:40:37;100918.56;;;12.90;54.22
13050;BME280;6591;51.446;5.404;2023-02-22T07:45:48;100919.97;;;12.97;54.41
13050;BME280;6591;51.446;5.404;2023-02-22T07:48:18;100925.91;;;13.02;54.49
13050;BME280;6591;51.446;5.404;2023-02-22T07:50:46;100916.81;;;13.06;53.98
13050;BME280;6591;51.446;5.404;2023-02-22T07:53:26;100920.25;;;13.08;54.30
13050;BME280;6591;51.446;5.404;2023-02-22T07:55:58;100925.38;;;13.12;54.13
13050;BME280;6591;51.446;5.404;2023-02-22T07:58:28;100915.31;;;13.18;54.34
13050;BME280;6591;51.446;5.404;2023-02-22T08:00:55;100927.44;;;13.23;54.35
13050;BME280;6591;51.446;5.404;2023-02-22T08:03:25;100928.06;;;13.28;54.58
13050;BME280;6591;51.446;5.404;2023-02-22T08:05:56;100917.88;;;13.35;54.28
13050;BME280;6591;51.446;5.404;2023-02-22T08:08:23;100911.34;;;13.40;54.60
13050;BME280;6591;51.446;5.404;2023-02-22T08:10:51;100903.00;;;13.46;54.38
13050;BME280;6591;51.446;5.404;2023-02-22T08:13:19;100905.53;;;13.49;54.59
13050;BME280;6591;51.446;5.404;2023-02-22T08:15:51;100906.00;;;13.56;54.34
13050;BME280;6591;51.446;5.404;2023-02-22T08:18:21;100908.25;;;13.64;54.52
13050;BME280;6591;51.446;5.404;2023-02-22T08:20:50;100897.41;;;13.67;54.60
13050;BME280;6591;51.446;5.404;2023-02-22T08:23:20;100899.56;;;13.76;54.61
13050;BME280;6591;51.446;5.404;2023-02-22T08:25:48;100905.22;;;13.85;54.71
13050;BME280;6591;51.446;5.404;2023-02-22T08:28:18;100902.94;;;13.93;54.57
13050;BME280;6591;51.446;5.404;2023-02-22T08:30:47;100911.28;;;14.03;55.01
13050;BME280;6591;51.446;5.404;2023-02-22T08:33:16;100915.13;;;14.13;54.71
13050;BME280;6591;51.446;5.404;2023-02-22T08:35:48;100898.66;;;14.21;54.84
13050;BME280;6591;51.446;5.404;2023-02-22T08:38:23;100898.09;;;14.30;54.72
13050;BME280;6591;51.446;5.404;2023-02-22T08:40:52;100911.56;;;14.44;54.75
13050;BME280;6591;51.446;5.404;2023-02-22T08:43:21;100905.56;;;14.55;54.84
13050;BME280;6591;51.446;5.404;2023-02-22T08:45:49;100906.59;;;14.66;55.00
13050;BME280;6591;51.446;5.404;2023-02-22T08:48:17;100891.72;;;14.76;54.72
13050;BME280;6591;51.446;5.404;2023-02-22T08:50:44;100892.84;;;14.87;54.90
13050;BME280;6591;51.446;5.404;2023-02-22T08:53:14;100903.00;;;14.96;54.54
13050;BME280;6591;51.446;5.404;2023-02-22T08:55:42;100898.78;;;15.06;54.63
13050;BME280;6591;51.446;5.404;2023-02-22T08:58:10;100901.66;;;15.17;54.60
13050;BME280;6591;51.446;5.404;2023-02-22T09:00:39;100891.97;;;15.28;54.45
13050;BME280;6591;51.446;5.404;2023-02-22T09:03:10;100882.50;;;15.37;54.63
13050;BME280;6591;51.446;5.404;2023-02-22T09:05:42;100890.56;;;15.50;54.45
13050;BME280;6591;51.446;5.404;2023-02-22T09:08:09;100886.19;;;15.63;54.24
13050;BME280;6591;51.446;5.404;2023-02-22T09:10:37;100884.72;;;15.72;54.43
13050;BME280;6591;51.446;5.404;2023-02-22T09:13:04;100876.94;;;15.81;54.13
13050;BME280;6591;51.446;5.404;2023-02-22T09:15:33;100874.53;;;15.91;54.19
13050;BME280;6591;51.446;5.404;2023-02-22T09:18:06;100869.28;;;16.02;54.12
13050;BME280;6591;51.446;5.404;2023-02-22T09:20:36;100861.50;;;16.12;54.04
13050;BME280;6591;51.446;5.404;2023-02-22T09:23:06;100867.63;;;16.26;54.20
13050;BME280;6591;51.446;5.404;2023-02-22T09:25:35;100853.25;;;16.40;53.91
13050;BME280;6591;51.446;5.404;2023-02-22T09:28:04;100847.78;;;16.54;53.99
13050;BME280;6591;51.446;5.404;2023-02-22T09:30:33;100847.84;;;16.67;53.79
13050;BME280;6591;51.446;5.404;2023-02-22T09:33:16;100857.56;;;16.80;53.77
13050;BME280;6591;51.446;5.404;2023-02-22T09:35:48;100852.84;;;16.97;53.48
13050;BME280;6591;51.446;5.404;2023-02-22T09:38:21;100852.47;;;17.14;53.34
13050;BME280;6591;51.446;5.404;2023-02-22T09:41:23;100848.47;;;17.32;53.59
13050;BME280;6591;51.446;5.404;2023-02-22T09:44:34;100848.38;;;17.57;53.43
13050;BME280;6591;51.446;5.404;2023-02-22T09:47:04;100853.53;;;17.84;53.21
13050;BME280;6591;51.446;5.404;2023-02-22T09:52:31;100853.19;;;18.24;52.81
13050;BME280;6591;51.446;5.404;2023-02-22T10:00:44;100847.06;;;18.79;52.13
13050;BME280;6591;51.446;5.404;2023-02-22T10:03:24;100851.09;;;18.95;51.61
13050;BME280;6591;51.446;5.404;2023-02-22T10:06:09;100843.38;;;19.13;51.74
13050;BME280;6591;51.446;5.404;2023-02-22T10:08:39;100841.84;;;19.31;51.62
13050;BME280;6591;51.446;5.404;2023-02-22T10:25:21;100830.66;;;20.43;50.43
13050;BME280;6591;51.446;5.404;2023-02-22T10:28:02;100830.91;;;20.60;50.07
13050;BME280;6591;51.446;5.404;2023-02-22T10:30:37;100831.41;;;20.75;49.83
13050;BME280;6591;51.446;5.404;2023-02-22T10:33:15;100828.63;;;20.86;49.43
13050;BME280;6591;51.446;5.404;2023-02-22T10:35:44;100835.66;;;20.98;49.57
13050;BME280;6591;51.446;5.404;2023-02-22T10:38:19;100832.53;;;21.03;49.32
13050;BME280;6591;51.446;5.404;2023-02-22T10:41:17;100834.41;;;21.12;48.91
13050;BME280;6591;51.446;5.404;2023-02-22T10:43:46;100829.63;;;21.25;49.31
13050;BME280;6591;51.446;5.404;2023-02-22T10:46:17;100834.66;;;21.39;49.33
13050;BME280;6591;51.446;5.404;2023-02-22T10:48:51;100834.97;;;21.55;48.53
13050;BME280;6591;51.446;5.404;2023-02-22T10:51:20;100832.69;;;21.70;48.57
13050;BME280;6591;51.446;5.404;2023-02-22T10:56:50;100824.44;;;21.91;47.22
13050;BME280;6591;51.446;5.404;2023-02-22T10:59:46;100826.75;;;21.95;47.39
13050;BME280;6591;51.446;5.404;2023-02-22T11:04:53;100836.00;;;22.12;46.61
13050;BME280;6591;51.446;5.404;2023-02-22T11:07:26;100820.06;;;22.19;46.38
13050;BME280;6591;51.446;5.404;2023-02-22T11:10:11;100813.78;;;22.18;46.01
13050;BME280;6591;51.446;5.404;2023-02-22T11:12:41;100812.63;;;22.21;45.88
13050;BME280;6591;51.446;5.404;2023-02-22T11:15:25;100820.06;;;22.19;45.94
13050;BME280;6591;51.446;5.404;2023-02-22T11:17:56;100816.50;;;22.18;45.64
13050;BME280;6591;51.446;5.404;2023-02-22T11:20:28;100823.75;;;22.18;45.60
13050;BME280;6591;51.446;5.404;2023-02-22T11:23:03;100815.47;;;22.19;45.34
13050;BME280;6591;51.446;5.404;2023-02-22T11:25:37;100816.06;;;22.23;45.52
13050;BME280;6591;51.446;5.404;2023-02-22T11:28:19;100818.31;;;22.27;45.33
13050;BME280;6591;51.446;5.404;2023-02-22T11:31:24;100809.47;;;22.35;45.21
13050;BME280;6591;51.446;5.404;2023-02-22T11:33:57;100809.28;;;22.46;45.29
13050;BME280;6591;51.446;5.404;2023-02-22T11:39:28;100805.16;;;22.52;44.56
13050;BME280;6591;51.446;5.404;2023-02-22T11:41:55;100799.47;;;22.55;44.96
13050;BME280;6591;51.446;5.404;2023-02-22T11:44:30;100798.59;;;22.54;44.20
13050;BME280;6591;51.446;5.404;2023-02-22T11:47:01;100797.19;;;22.50;44.48
13050;BME280;6591;51.446;5.404;2023-02-22T11:49:36;100794.34;;;22.42;44.28
13050;BME280;6591;51.446;5.404;2023-02-22T11:52:22;100790.09;;;22.30;44.30
13050;BME280;6591;51.446;5.404;2023-02-22T11:58:32;100785.72;;;22.10;44.06
13050;BME280;6591;51.446;5.404;2023-02-22T12:01:12;100782.47;;;22.06;44.36
13050;BME280;6591;51.446;5.404;2023-02-22T12:21:22;100748.59;;;21.73;44.19
13050;BME280;6591;51.446;5.404;2023-02-22T12:24:09;100750.19;;;21.76;44.44
13050;BME280;6591;51.446;5.404;2023-02-22T12:26:55;100754.72;;;21.75;44.29
13050;BME280;6591;51.446;5.404;2023-02-22T12:29:50;100764.69;;;21.65;43.58
13050;BME280;6591;51.446;5.404;2023-02-22T12:38:23;100764.03;;;21.04;44.00
13050;BME280;6591;51.446;5.404;2023-02-22T12:41:10;100776.84;;;20.71;43.63
13050;BME280;6591;51.446;5.404;2023-02-22T12:43:47;100779.16;;;20.46;43.71
13050;BME280;6591;51.446;5.404;2023-02-22T12:46:25;100767.91;;;20.20;44.54
13050;BME280;6591;51.446;5.404;2023-02-22T12:49:22;100784.00;;;19.89;44.10
13050;BME280;6591;51.446;5.404;2023-02-22T12:51:59;100777.38;;;19.73;44.86
13050;BME280;6591;51.446;5.404;2023-02-22T12:55:02;100775.63;;;19.51;45.01
13050;BME280;6591;51.446;5.404;2023-02-22T12:58:22;100781.06;;;19.29;45.52
13050;BME280;6591;51.446;5.404;2023-02-22T13:01:12;100791.63;;;19.21;45.66
13050;BME280;6591;51.446;5.404;2023-02-22T13:03:42;100794.91;;;19.13;45.94
13050;BME280;6591;51.446;5.404;2023-02-22T13:06:43;100793.97;;;19.03;46.16
13050;BME280;6591;51.446;5.404;2023-02-22T13:18:50;100788.47;;;18.93;47.25
13050;BME280;6591;51.446;5.404;2023-02-22T13:24:14;100773.28;;;19.03;47.41
13050;BME280;6591;51.446;5.404;2023-02-22T13:27:04;100769.34;;;19.08;47.37
13050;BME280;6591;51.446;5.404;2023-02-22T13:29:41;100770.56;;;19.15;47.30
13050;BME280;6591;51.446;5.404;2023-02-22T13:37:35;100769.91;;;19.33;47.67
13050;BME280;6591;51.446;5.404;2023-02-22T13:40:26;100762.28;;;19.38;47.34
13050;BME280;6591;51.446;5.404;2023-02-22T13:43:33;100764.75;;;19.41;47.50
13050;BME280;6591;51.446;5.404;2023-02-22T13:46:43;100768.16;;;19.43;47.39
13050;BME280;6591;51.446;5.404;2023-02-22T13:49:59;100762.66;;;19.45;47.55
13050;BME280;6591;51.446;5.404;2023-02-22T13:52:30;100769.50;;;19.49;47.28
13050;BME280;6591;51.446;5.404;2023-02-22T13:55:05;100775.00;;;19.48;47.21
13050;BME280;6591;51.446;5.404;2023-02-22T13:57:41;100768.75;;;19.47;47.22
13050;BME280;6591;51.446;5.404;2023-02-22T14:00:32;100769.00;;;19.44;47.14
13050;BME280;6591;51.446;5.404;2023-02-22T14:10:59;100767.94;;;19.35;47.25
13050;BME280;6591;51.446;5.404;2023-02-22T14:16:26;100774.69;;;19.30;46.90
13050;BME280;6591;51.446;5.404;2023-02-22T14:19:23;100771.63;;;19.23;46.67
13050;BME280;6591;51.446;5.404;2023-02-22T14:22:03;100779.72;;;19.23;47.05
13050;BME280;6591;51.446;5.404;2023-02-22T14:24:43;100776.16;;;19.23;47.06
13050;BME280;6591;51.446;5.404;2023-02-22T14:27:13;100769.53;;;19.27;47.19
13050;BME280;6591;51.446;5.404;2023-02-22T14:29:56;100769.41;;;19.28;47.17
13050;BME280;6591;51.446;5.404;2023-02-22T14:32:32;100775.41;;;19.32;47.19
13050;BME280;6591;51.446;5.404;2023-02-22T14:35:12;100768.81;;;19.36;47.29
13050;BME280;6591;51.446;5.404;2023-02-22T14:37:57;100770.84;;;19.43;47.34
13050;BME280;6591;51.446;5.404;2023-02-22T14:40:30;100783.84;;;19.50;47.33
13050;BME280;6591;51.446;5.404;2023-02-22T14:43:17;100773.78;;;19.52;47.35
13050;BME280;6591;51.446;5.404;2023-02-22T14:45:52;100780.63;;;19.56;46.87
13050;BME280;6591;51.446;5.404;2023-02-22T14:48:31;100778.66;;;19.58;46.88
13050;BME280;6591;51.446;5.404;2023-02-22T14:51:24;100786.00;;;19.56;46.96
13050;BME280;6591;51.446;5.404;2023-02-22T14:54:07;100789.41;;;19.58;47.10
13050;BME280;6591;51.446;5.404;2023-02-22T14:56:46;100787.47;;;19.60;46.97
13050;BME280;6591;51.446;5.404;2023-02-22T14:59:23;100785.50;;;19.62;46.97
13050;BME280;6591;51.446;5.404;2023-02-22T15:02:12;100786.59;;;19.59;46.83
13050;BME280;6591;51.446;5.404;2023-02-22T15:04:40;100784.78;;;19.60;46.71
13050;BME280;6591;51.446;5.404;2023-02-22T15:07:26;100792.25;;;19.56;46.70
13050;BME280;6591;51.446;5.404;2023-02-22T15:10:17;100797.88;;;19.53;46.65
13050;BME280;6591;51.446;5.404;2023-02-22T15:13:05;100804.63;;;19.48;46.75
13050;BME280;6591;51.446;5.404;2023-02-22T15:15:40;100802.94;;;19.47;46.83
13050;BME280;6591;51.446;5.404;2023-02-22T15:18:48;100798.28;;;19.37;46.77
13050;BME280;6591;51.446;5.404;2023-02-22T15:21:22;100807.59;;;19.33;46.76
13050;BME280;6591;51.446;5.404;2023-02-22T15:23:58;100807.13;;;19.28;46.73
13050;BME280;6591;51.446;5.404;2023-02-22T15:26:39;100807.88;;;19.19;46.63
13050;BME280;6591;51.446;5.404;2023-02-22T15:29:38;100813.88;;;19.12;46.48
13050;BME280;6591;51.446;5.404;2023-02-22T15:32:34;100809.38;;;19.01;46.85
13050;BME280;6591;51.446;5.404;2023-02-22T15:35:13;100807.16;;;18.95;46.84
13050;BME280;6591;51.446;5.404;2023-02-22T15:37:46;100800.44;;;18.89;46.67
13050;BME280;6591;51.446;5.404;2023-02-22T15:40:19;100804.25;;;18.87;47.01
13050;BME280;6591;51.446;5.404;2023-02-22T15:42:51;100802.91;;;18.81;46.97
13050;BME280;6591;51.446;5.404;2023-02-22T15:45:21;100797.78;;;18.78;46.84
13050;BME280;6591;51.446;5.404;2023-02-22T15:47:51;100797.31;;;18.73;46.81
13050;BME280;6591;51.446;5.404;2023-02-22T15:50:29;100795.94;;;18.68;47.00
13050;BME280;6591;51.446;5.404;2023-02-22T15:53:02;100803.53;;;18.63;47.04